createdAt,value
2019-05-12T00:00:25.227Z,7.29
2019-05-12T00:01:25.144Z,7.31
2019-05-12T00:02:25.119Z,7.28
2019-05-12T00:03:25.108Z,7.32
2019-05-12T00:04:25.110Z,7.31
2019-05-12T00:05:25.070Z,7.29
2019-05-12T00:06:25.081Z,7.29
2019-05-12T00:07:25.026Z,7.29
2019-05-12T00:08:25.023Z,7.22
2019-05-12T00:09:25.053Z,7.19
2019-05-12T00:10:24.974Z,7.21
2019-05-12T00:11:24.961Z,7.18
2019-05-12T00:12:24.946Z,7.15
2019-05-12T00:13:24.922Z,7.15
2019-05-12T00:14:24.915Z,7.14
2019-05-12T00:15:24.923Z,7.13
2019-05-12T00:16:24.909Z,7.07
2019-05-12T00:17:24.849Z,7.05
2019-05-12T00:18:24.839Z,7.07
2019-05-12T00:19:24.848Z,7.07
2019-05-12T00:20:24.798Z,7.08
2019-05-12T00:21:24.808Z,7.05
2019-05-12T00:22:24.763Z,6.97
2019-05-12T00:23:28.071Z,7.00
2019-05-12T00:24:24.727Z,6.96
2019-05-12T00:25:24.709Z,6.92
2019-05-12T00:26:24.698Z,6.89
2019-05-12T00:27:24.711Z,6.92
2019-05-12T00:28:24.659Z,6.95
2019-05-12T00:29:24.669Z,6.92
2019-05-12T00:30:24.622Z,6.95
2019-05-12T00:31:24.604Z,6.89
2019-05-12T00:32:24.595Z,6.86
2019-05-12T00:33:24.575Z,6.82
2019-05-12T00:34:24.555Z,6.83
2019-05-12T00:35:24.538Z,6.82
2019-05-12T00:36:24.516Z,6.83
2019-05-12T00:37:24.494Z,6.86
2019-05-12T00:38:24.507Z,6.89
2019-05-12T00:39:24.465Z,6.92
2019-05-12T00:40:24.437Z,6.92
2019-05-12T00:41:24.426Z,6.95
2019-05-12T00:42:24.402Z,6.92
2019-05-12T00:43:24.420Z,6.80
2019-05-12T00:44:24.405Z,6.78
2019-05-12T00:45:24.349Z,6.78
2019-05-12T00:46:24.339Z,6.85
2019-05-12T00:47:24.312Z,6.89
2019-05-12T00:48:24.298Z,6.90
2019-05-12T00:49:24.312Z,6.93
2019-05-12T00:50:24.269Z,6.93
2019-05-12T00:51:24.271Z,6.92
2019-05-12T00:52:24.232Z,6.92
2019-05-12T00:53:36.186Z,6.92
2019-05-12T00:54:24.192Z,6.93
2019-05-12T00:55:24.205Z,6.93
2019-05-12T00:56:24.161Z,6.92
2019-05-12T00:57:24.138Z,6.86
2019-05-12T00:58:24.121Z,6.80
2019-05-12T00:59:24.121Z,6.78
2019-05-12T01:00:24.079Z,6.82
2019-05-12T01:01:24.093Z,6.78
2019-05-12T01:02:24.042Z,6.80
2019-05-12T01:03:24.026Z,6.77
2019-05-12T01:04:24.038Z,6.78
2019-05-12T01:05:23.990Z,6.75
2019-05-12T01:06:24.021Z,6.71
2019-05-12T01:07:23.957Z,6.74
2019-05-12T01:08:23.938Z,6.75
2019-05-12T01:09:23.917Z,6.72
2019-05-12T01:10:23.906Z,6.68
2019-05-12T01:11:23.909Z,6.65
2019-05-12T01:12:23.865Z,6.64
2019-05-12T01:13:23.847Z,6.54
2019-05-12T01:14:23.853Z,6.56
2019-05-12T01:15:23.806Z,6.62
2019-05-12T01:16:23.799Z,6.65
2019-05-12T01:17:23.777Z,6.72
2019-05-12T01:18:23.755Z,6.74
2019-05-12T01:19:23.786Z,6.75
2019-05-12T01:20:23.730Z,6.74
2019-05-12T01:21:23.710Z,6.70
2019-05-12T01:22:23.681Z,6.59
2019-05-12T01:23:23.769Z,6.60
2019-05-12T01:24:23.650Z,6.60
2019-05-12T01:25:23.654Z,6.64
2019-05-12T01:26:23.604Z,6.65
2019-05-12T01:27:23.616Z,6.67
2019-05-12T01:28:23.575Z,6.68
2019-05-12T01:29:23.555Z,6.68
2019-05-12T01:30:23.535Z,6.67
2019-05-12T01:31:23.525Z,6.64
2019-05-12T01:32:23.566Z,6.65
2019-05-12T01:33:23.481Z,6.67
2019-05-12T01:34:23.467Z,6.64
2019-05-12T01:35:23.448Z,6.62
2019-05-12T01:36:23.429Z,6.59
2019-05-12T01:37:23.414Z,6.60
2019-05-12T01:38:23.407Z,6.65
2019-05-12T01:39:23.373Z,6.70
2019-05-12T01:40:23.353Z,6.71
2019-05-12T01:41:23.339Z,6.72
2019-05-12T01:42:23.354Z,6.71
2019-05-12T01:43:23.301Z,6.75
2019-05-12T01:44:23.286Z,6.71
2019-05-12T01:45:23.271Z,6.71
2019-05-12T01:46:23.246Z,6.71
2019-05-12T01:47:23.250Z,6.70
2019-05-12T01:48:23.217Z,6.68
2019-05-12T01:49:23.194Z,6.71
2019-05-12T01:50:23.209Z,6.68
2019-05-12T01:51:23.150Z,6.72
2019-05-12T01:52:23.135Z,6.72
2019-05-12T01:53:23.129Z,6.77
2019-05-12T01:54:23.131Z,6.82
2019-05-12T01:55:23.107Z,6.80
2019-05-12T01:56:23.068Z,6.75
2019-05-12T01:57:23.058Z,6.77
2019-05-12T01:58:23.026Z,6.80
2019-05-12T01:59:23.012Z,6.74
2019-05-12T02:00:23.012Z,6.74
2019-05-12T02:01:22.980Z,6.72
2019-05-12T02:02:22.961Z,6.75
2019-05-12T02:03:22.935Z,6.71
2019-05-12T02:04:22.948Z,6.62
2019-05-12T02:05:22.901Z,6.54
2019-05-12T02:06:22.883Z,6.54
2019-05-12T02:07:22.891Z,6.54
2019-05-12T02:08:22.851Z,6.59
2019-05-12T02:09:22.832Z,6.57
2019-05-12T02:10:22.942Z,6.62
2019-05-12T02:11:22.796Z,6.64
2019-05-12T02:12:22.801Z,6.64
2019-05-12T02:13:22.761Z,6.59
2019-05-12T02:14:22.742Z,6.53
2019-05-12T02:15:22.721Z,6.53
2019-05-12T02:16:22.711Z,6.53
2019-05-12T02:17:22.712Z,6.53
2019-05-12T02:18:22.672Z,6.59
2019-05-12T02:19:22.645Z,6.59
2019-05-12T02:20:22.625Z,6.57
2019-05-12T02:21:22.612Z,6.57
2019-05-12T02:22:22.626Z,6.57
2019-05-12T02:23:22.572Z,6.57
2019-05-12T02:24:27.026Z,6.62
2019-05-12T02:25:22.564Z,6.59
2019-05-12T02:26:22.522Z,6.59
2019-05-12T02:27:22.530Z,6.54
2019-05-12T02:28:22.478Z,6.52
2019-05-12T02:29:22.493Z,6.49
2019-05-12T02:30:22.449Z,6.46
2019-05-12T02:31:22.427Z,6.43
2019-05-12T02:32:25.343Z,6.36
2019-05-12T02:33:24.441Z,6.39
2019-05-12T02:34:25.321Z,6.36
2019-05-12T02:35:24.747Z,6.39
2019-05-12T02:36:24.827Z,6.43
2019-05-12T02:37:22.354Z,6.46
2019-05-12T02:38:25.055Z,6.44
2019-05-12T02:39:24.825Z,6.41
2019-05-12T02:40:24.911Z,6.41
2019-05-12T02:41:25.661Z,6.43
2019-05-12T02:42:24.376Z,6.39
2019-05-12T02:43:24.473Z,6.43
2019-05-12T02:44:24.770Z,6.41
2019-05-12T02:45:24.867Z,6.44
2019-05-12T02:46:25.175Z,6.44
2019-05-12T02:47:24.132Z,6.46
2019-05-12T02:48:24.583Z,6.47
2019-05-12T02:49:24.397Z,6.47
2019-05-12T02:50:24.782Z,6.49
2019-05-12T02:51:24.793Z,6.46
2019-05-12T02:52:25.021Z,6.46
2019-05-12T02:53:24.867Z,6.44
2019-05-12T02:54:24.982Z,6.38
2019-05-12T02:55:25.409Z,6.34
2019-05-12T02:56:25.248Z,6.35
2019-05-12T02:57:25.235Z,6.39
2019-05-12T02:58:25.210Z,6.38
2019-05-12T02:59:25.027Z,6.34
2019-05-12T03:00:24.231Z,6.38
2019-05-12T03:01:24.385Z,6.36
2019-05-12T03:02:24.527Z,6.38
2019-05-12T03:03:24.863Z,6.36
2019-05-12T03:04:24.555Z,6.35
2019-05-12T03:05:24.570Z,6.36
2019-05-12T03:06:24.943Z,6.32
2019-05-12T03:07:25.225Z,6.29
2019-05-12T03:08:21.750Z,6.25
2019-05-12T03:09:24.443Z,6.20
2019-05-12T03:10:24.531Z,6.19
2019-05-12T03:11:24.616Z,6.16
2019-05-12T03:12:25.275Z,6.16
2019-05-12T03:13:21.661Z,6.15
2019-05-12T03:14:25.051Z,6.19
2019-05-12T03:15:24.774Z,6.19
2019-05-12T03:16:21.623Z,6.20
2019-05-12T03:17:24.930Z,6.19
2019-05-12T03:18:25.084Z,6.17
2019-05-12T03:19:21.561Z,6.19
2019-05-12T03:20:24.230Z,6.20
2019-05-12T03:21:24.312Z,6.20
2019-05-12T03:22:24.987Z,6.25
2019-05-12T03:23:24.620Z,6.22
2019-05-12T03:24:24.723Z,6.22
2019-05-12T03:25:26.074Z,6.20
2019-05-12T03:26:24.373Z,6.20
2019-05-12T03:27:25.296Z,6.25
2019-05-12T03:28:25.134Z,6.25
2019-05-12T03:29:21.367Z,6.20
2019-05-12T03:30:21.364Z,6.20
2019-05-12T03:31:25.425Z,6.22
2019-05-12T03:32:26.766Z,6.16
2019-05-12T03:33:27.161Z,6.12
2019-05-12T03:34:21.289Z,6.10
2019-05-12T03:35:21.257Z,6.12
2019-05-12T03:36:21.252Z,6.12
2019-05-12T03:37:30.274Z,6.15
2019-05-12T03:38:21.202Z,6.16
2019-05-12T03:39:21.185Z,6.15
2019-05-12T03:40:24.662Z,6.15
2019-05-12T03:41:21.143Z,6.15
2019-05-12T03:42:24.778Z,6.10
2019-05-12T03:43:24.166Z,6.06
2019-05-12T03:44:21.095Z,6.07
2019-05-12T03:45:21.080Z,6.09
2019-05-12T03:46:24.526Z,6.12
2019-05-12T03:47:21.069Z,6.10
2019-05-12T03:48:21.152Z,6.09
2019-05-12T03:49:24.246Z,6.10
2019-05-12T03:50:24.062Z,6.07
2019-05-12T03:51:24.800Z,6.09
2019-05-12T03:52:24.101Z,6.07
2019-05-12T03:53:24.398Z,6.06
2019-05-12T03:54:24.150Z,6.05
2019-05-12T03:55:34.442Z,6.05
2019-05-12T03:56:20.880Z,6.07
2019-05-12T03:57:20.884Z,6.05
2019-05-12T03:58:20.860Z,6.02
2019-05-12T03:59:20.818Z,6.05
2019-05-12T04:00:20.798Z,5.99
2019-05-12T04:01:20.784Z,6.02
2019-05-12T04:02:20.761Z,6.09
2019-05-12T04:03:20.777Z,6.12
2019-05-12T04:04:20.751Z,6.13
2019-05-12T04:05:20.731Z,6.16
2019-05-12T04:06:20.690Z,6.16
2019-05-12T04:07:20.663Z,6.17
2019-05-12T04:08:20.653Z,6.16
2019-05-12T04:09:20.663Z,6.17
2019-05-12T04:10:20.619Z,6.19
2019-05-12T04:11:20.600Z,6.22
2019-05-12T04:12:20.581Z,6.22
2019-05-12T04:13:20.583Z,6.19
2019-05-12T04:14:20.536Z,6.19
2019-05-12T04:15:20.518Z,6.15
2019-05-12T04:16:20.510Z,6.13
2019-05-12T04:17:20.531Z,6.09
2019-05-12T04:18:20.459Z,6.06
2019-05-12T04:19:20.446Z,6.07
2019-05-12T04:20:20.433Z,6.06
2019-05-12T04:21:20.416Z,6.06
2019-05-12T04:22:20.423Z,6.07
2019-05-12T04:23:20.379Z,6.10
2019-05-12T04:24:20.360Z,6.12
2019-05-12T04:25:20.334Z,6.10
2019-05-12T04:26:20.320Z,6.13
2019-05-12T04:27:20.336Z,6.17
2019-05-12T04:28:20.287Z,6.19
2019-05-12T04:29:20.295Z,6.20
2019-05-12T04:30:20.248Z,6.17
2019-05-12T04:31:20.224Z,6.17
2019-05-12T04:32:20.206Z,6.20
2019-05-12T04:33:20.198Z,6.22
2019-05-12T04:34:20.192Z,6.28
2019-05-12T04:35:20.160Z,6.28
2019-05-12T04:36:20.145Z,6.28
2019-05-12T04:37:20.125Z,6.26
2019-05-12T04:38:20.097Z,6.28
2019-05-12T04:39:20.084Z,6.31
2019-05-12T04:40:20.066Z,6.31
2019-05-12T04:41:20.489Z,6.31
2019-05-12T04:42:20.021Z,6.31
2019-05-12T04:43:20.010Z,6.35
2019-05-12T04:44:19.989Z,6.38
2019-05-12T04:45:19.974Z,6.39
2019-05-12T04:46:19.957Z,6.46
2019-05-12T04:47:19.952Z,6.47
2019-05-12T04:48:21.475Z,6.47
2019-05-12T04:49:19.895Z,6.46
2019-05-12T04:50:19.879Z,6.43
2019-05-12T04:51:19.891Z,6.41
2019-05-12T04:52:19.876Z,6.35
2019-05-12T04:53:19.819Z,6.31
2019-05-12T04:54:19.836Z,6.26
2019-05-12T04:55:19.785Z,6.22
2019-05-12T04:56:20.729Z,6.17
2019-05-12T04:57:21.043Z,6.16
2019-05-12T04:58:19.764Z,6.15
2019-05-12T04:59:19.710Z,6.12
2019-05-12T05:00:19.702Z,6.12
2019-05-12T05:01:19.709Z,6.09
2019-05-12T05:02:19.661Z,6.09
2019-05-12T05:03:19.680Z,6.12
2019-05-12T05:04:19.643Z,6.12
2019-05-12T05:05:19.600Z,6.13
2019-05-12T05:06:19.589Z,6.15
2019-05-12T05:07:19.564Z,6.15
2019-05-12T05:08:20.066Z,6.17
2019-05-12T05:09:19.525Z,6.25
2019-05-12T05:10:19.512Z,6.26
2019-05-12T05:11:19.492Z,6.32
2019-05-12T05:12:19.484Z,6.34
2019-05-12T05:13:19.455Z,6.35
2019-05-12T05:14:19.475Z,6.34
2019-05-12T05:15:19.420Z,6.35
2019-05-12T05:16:19.398Z,6.36
2019-05-12T05:17:19.381Z,6.39
2019-05-12T05:18:19.371Z,6.39
2019-05-12T05:19:19.369Z,6.39
2019-05-12T05:20:19.339Z,6.43
2019-05-12T05:21:19.317Z,6.49
2019-05-12T05:22:19.295Z,6.52
2019-05-12T05:23:19.270Z,6.50
2019-05-12T05:24:19.283Z,6.46
2019-05-12T05:25:19.244Z,6.46
2019-05-12T05:26:24.337Z,6.44
2019-05-12T05:27:19.194Z,6.46
2019-05-12T05:28:19.191Z,6.44
2019-05-12T05:29:19.307Z,6.50
2019-05-12T05:30:19.139Z,6.52
2019-05-12T05:31:19.133Z,6.53
2019-05-12T05:32:19.106Z,6.56
2019-05-12T05:33:19.975Z,6.62
2019-05-12T05:34:19.067Z,6.67
2019-05-12T05:35:19.078Z,6.71
2019-05-12T05:36:19.895Z,6.72
2019-05-12T05:37:19.017Z,6.77
2019-05-12T05:38:20.842Z,6.83
2019-05-12T05:39:19.062Z,6.87
2019-05-12T05:40:19.778Z,6.93
2019-05-12T05:41:18.940Z,6.93
2019-05-12T05:42:22.190Z,6.96
2019-05-12T05:43:18.999Z,7.01
2019-05-12T05:44:18.902Z,7.04
2019-05-12T05:45:23.649Z,7.10
2019-05-12T05:46:18.858Z,7.07
2019-05-12T05:47:19.906Z,7.08
2019-05-12T05:48:18.845Z,7.13
2019-05-12T05:49:18.798Z,7.13
2019-05-12T05:50:25.199Z,7.13
2019-05-12T05:51:18.761Z,7.13
2019-05-12T05:52:18.742Z,7.14
2019-05-12T05:53:19.798Z,7.19
2019-05-12T05:54:25.168Z,7.19
2019-05-12T05:55:20.281Z,7.18
2019-05-12T05:56:18.678Z,7.19
2019-05-12T05:57:20.174Z,7.19
2019-05-12T05:58:18.662Z,7.22
2019-05-12T05:59:21.971Z,7.22
2019-05-12T06:00:23.133Z,7.23
2019-05-12T06:01:18.602Z,7.26
2019-05-12T06:02:25.371Z,7.28
2019-05-12T06:03:22.940Z,7.29
2019-05-12T06:04:18.531Z,7.29
2019-05-12T06:05:24.630Z,7.29
2019-05-12T06:06:18.547Z,7.29
2019-05-12T06:07:23.818Z,7.28
2019-05-12T06:08:20.783Z,7.26
2019-05-12T06:09:18.441Z,7.31
2019-05-12T06:10:18.416Z,7.37
2019-05-12T06:11:23.805Z,7.43
2019-05-12T06:12:18.408Z,7.47
2019-05-12T06:13:21.108Z,7.48
2019-05-12T06:14:18.349Z,7.51
2019-05-12T06:15:18.335Z,7.55
2019-05-12T06:16:20.824Z,7.58
2019-05-12T06:17:18.318Z,7.62
2019-05-12T06:18:18.280Z,7.69
2019-05-12T06:19:18.289Z,7.70
2019-05-12T06:20:18.247Z,7.70
2019-05-12T06:21:18.221Z,7.75
2019-05-12T06:22:18.520Z,7.80
2019-05-12T06:23:18.219Z,7.84
2019-05-12T06:24:20.131Z,7.87
2019-05-12T06:25:18.157Z,7.87
2019-05-12T06:26:21.017Z,7.90
2019-05-12T06:27:21.043Z,7.88
2019-05-12T06:28:18.119Z,7.90
2019-05-12T06:29:20.813Z,7.90
2019-05-12T06:30:18.067Z,7.91
2019-05-12T06:31:18.866Z,7.95
2019-05-12T06:32:18.022Z,7.96
2019-05-12T06:33:22.721Z,7.99
2019-05-12T06:34:20.855Z,8.01
2019-05-12T06:35:17.978Z,7.96
2019-05-12T06:36:22.171Z,7.99
2019-05-12T06:37:17.940Z,7.98
2019-05-12T06:38:17.948Z,7.99
2019-05-12T06:39:20.586Z,7.98
2019-05-12T06:40:17.944Z,8.01
2019-05-12T06:41:20.651Z,8.03
2019-05-12T06:42:17.850Z,8.08
2019-05-12T06:43:17.830Z,8.09
2019-05-12T06:44:19.553Z,8.16
2019-05-12T06:45:17.803Z,8.20
2019-05-12T06:46:20.661Z,8.24
2019-05-12T06:47:17.770Z,8.31
2019-05-12T06:48:19.232Z,8.35
2019-05-12T06:49:17.847Z,8.38
2019-05-12T06:50:17.718Z,8.41
2019-05-12T06:51:22.566Z,8.38
2019-05-12T06:52:17.700Z,8.38
2019-05-12T06:53:20.290Z,8.42
2019-05-12T06:54:17.637Z,8.39
2019-05-12T06:55:17.621Z,8.39
2019-05-12T06:56:19.775Z,8.36
2019-05-12T06:57:24.962Z,8.35
2019-05-12T06:58:26.054Z,8.39
2019-05-12T06:59:17.582Z,8.42
2019-05-12T07:00:22.356Z,8.45
2019-05-12T07:01:19.431Z,8.41
2019-05-12T07:02:17.801Z,8.41
2019-05-12T07:03:19.336Z,8.38
2019-05-12T07:04:17.486Z,8.36
2019-05-12T07:05:17.456Z,8.39
2019-05-12T07:06:19.693Z,8.42
2019-05-12T07:07:17.442Z,8.46
2019-05-12T07:08:26.595Z,8.57
2019-05-12T07:09:24.988Z,8.63
2019-05-12T07:10:35.754Z,8.72
2019-05-12T07:11:17.337Z,8.81
2019-05-12T07:12:17.324Z,8.84
2019-05-12T07:13:23.338Z,8.81
2019-05-12T07:14:22.518Z,8.81
2019-05-12T07:15:17.398Z,8.84
2019-05-12T07:16:22.914Z,8.89
2019-05-12T07:17:17.237Z,8.92
2019-05-12T07:18:17.749Z,8.89
2019-05-12T07:19:22.491Z,8.90
2019-05-12T07:20:17.199Z,8.93
2019-05-12T07:21:19.817Z,8.99
2019-05-12T07:22:22.044Z,9.02
2019-05-12T07:23:19.685Z,9.03
2019-05-12T07:24:17.112Z,9.08
2019-05-12T07:25:17.099Z,9.09
2019-05-12T07:26:19.364Z,9.02
2019-05-12T07:27:17.126Z,8.99
2019-05-12T07:28:17.056Z,8.99
2019-05-12T07:29:17.043Z,8.97
2019-05-12T07:30:17.097Z,8.97
2019-05-12T07:31:17.000Z,9.02
2019-05-12T07:32:21.762Z,9.00
2019-05-12T07:33:16.958Z,9.02
2019-05-12T07:34:16.972Z,9.00
2019-05-12T07:35:16.930Z,8.99
2019-05-12T07:36:16.909Z,9.02
2019-05-12T07:37:16.895Z,9.11
2019-05-12T07:38:21.284Z,9.18
2019-05-12T07:39:16.890Z,9.26
2019-05-12T07:40:18.893Z,9.30
2019-05-12T07:41:16.830Z,9.21
2019-05-12T07:42:16.808Z,9.18
2019-05-12T07:43:20.548Z,9.22
2019-05-12T07:44:16.780Z,9.22
2019-05-12T07:45:22.184Z,9.29
2019-05-12T07:46:16.885Z,9.26
2019-05-12T07:47:19.168Z,9.29
2019-05-12T07:48:16.701Z,9.34
2019-05-12T07:49:22.586Z,9.42
2019-05-12T07:50:20.720Z,9.47
2019-05-12T07:51:16.684Z,9.51
2019-05-12T07:52:16.640Z,9.52
2019-05-12T07:53:16.620Z,9.48
2019-05-12T07:54:16.600Z,9.51
2019-05-12T07:55:16.589Z,9.56
2019-05-12T07:56:19.508Z,9.56
2019-05-12T07:57:17.663Z,9.58
2019-05-12T07:58:19.057Z,9.62
2019-05-12T07:59:16.523Z,9.67
2019-05-12T08:00:21.308Z,9.74
2019-05-12T08:01:16.509Z,9.85
2019-05-12T08:02:16.469Z,9.99
2019-05-12T08:03:20.904Z,9.95
2019-05-12T08:04:16.434Z,10.03
2019-05-12T08:05:20.075Z,10.10
2019-05-12T08:06:16.426Z,10.18
2019-05-12T08:07:19.850Z,10.25
2019-05-12T08:08:16.376Z,10.27
2019-05-12T08:09:16.356Z,10.24
2019-05-12T08:10:20.024Z,10.12
2019-05-12T08:11:16.342Z,10.13
2019-05-12T08:12:20.839Z,10.18
2019-05-12T08:13:18.664Z,10.09
2019-05-12T08:14:25.878Z,9.99
2019-05-12T08:15:16.257Z,9.97
2019-05-12T08:16:19.583Z,9.94
2019-05-12T08:17:19.462Z,9.90
2019-05-12T08:18:16.210Z,9.91
2019-05-12T08:19:23.897Z,9.92
2019-05-12T08:20:16.168Z,9.97
2019-05-12T08:21:16.181Z,9.97
2019-05-12T08:22:18.987Z,10.00
2019-05-12T08:23:16.122Z,10.10
2019-05-12T08:24:16.138Z,10.23
2019-05-12T08:25:18.719Z,10.34
2019-05-12T08:26:18.651Z,10.42
2019-05-12T08:27:16.062Z,10.53
2019-05-12T08:28:19.092Z,10.67
2019-05-12T08:29:21.364Z,10.79
2019-05-12T08:30:16.015Z,10.68
2019-05-12T08:31:16.045Z,10.59
2019-05-12T08:32:20.133Z,10.57
2019-05-12T08:33:15.955Z,10.58
2019-05-12T08:34:15.951Z,10.64
2019-05-12T08:35:25.787Z,10.68
2019-05-12T08:36:16.571Z,10.77
2019-05-12T08:37:15.897Z,10.82
2019-05-12T08:38:15.874Z,10.77
2019-05-12T08:39:21.001Z,10.67
2019-05-12T08:40:15.855Z,10.42
2019-05-12T08:41:15.836Z,10.30
2019-05-12T08:42:15.825Z,10.25
2019-05-12T08:43:15.829Z,10.09
2019-05-12T08:44:17.497Z,9.97
2019-05-12T08:45:25.724Z,9.91
2019-05-12T08:46:15.973Z,9.90
2019-05-12T08:47:15.734Z,9.90
2019-05-12T08:48:19.762Z,9.90
2019-05-12T08:49:15.700Z,10.09
2019-05-12T08:50:15.693Z,10.38
2019-05-12T08:51:19.869Z,10.64
2019-05-12T08:52:15.686Z,10.80
2019-05-12T08:53:20.903Z,11.05
2019-05-12T08:54:15.626Z,11.56
2019-05-12T08:55:16.945Z,12.11
2019-05-12T08:56:19.321Z,12.43
2019-05-12T08:57:15.583Z,12.73
2019-05-12T08:58:30.469Z,13.09
2019-05-12T08:59:18.497Z,13.65
2019-05-12T09:00:15.596Z,14.16
2019-05-12T09:01:20.247Z,14.93
2019-05-12T09:02:15.510Z,15.36
2019-05-12T09:03:20.359Z,15.37
2019-05-12T09:04:18.362Z,15.19
2019-05-12T09:05:15.583Z,14.89
2019-05-12T09:06:19.527Z,14.90
2019-05-12T09:07:15.425Z,14.62
2019-05-12T09:08:15.465Z,14.12
2019-05-12T09:09:15.403Z,13.79
2019-05-12T09:10:15.425Z,13.28
2019-05-12T09:11:15.380Z,12.86
2019-05-12T09:12:15.375Z,12.40
2019-05-12T09:13:15.497Z,12.18
2019-05-12T09:14:15.344Z,12.25
2019-05-12T09:15:15.329Z,12.39
2019-05-12T09:16:15.315Z,12.93
2019-05-12T09:17:15.311Z,13.68
2019-05-12T09:18:15.297Z,14.26
2019-05-12T09:19:20.514Z,14.40
2019-05-12T09:20:15.535Z,14.33
2019-05-12T09:21:15.407Z,14.33
2019-05-12T09:22:18.498Z,14.55
2019-05-12T09:23:15.223Z,15.35
2019-05-12T09:24:21.976Z,15.92
2019-05-12T09:25:15.334Z,15.98
2019-05-12T09:26:18.492Z,16.37
2019-05-12T09:27:15.172Z,16.46
2019-05-12T09:28:15.163Z,16.13
2019-05-12T09:29:15.166Z,15.73
2019-05-12T09:30:15.152Z,15.90
2019-05-12T09:31:19.337Z,16.08
2019-05-12T09:32:15.126Z,16.34
2019-05-12T09:33:15.113Z,15.70
2019-05-12T09:34:16.547Z,14.41
2019-05-12T09:35:15.091Z,13.78
2019-05-12T09:36:19.927Z,13.19
2019-05-12T09:37:15.074Z,12.66
2019-05-12T09:38:21.171Z,12.76
2019-05-12T09:39:15.054Z,12.81
2019-05-12T09:40:19.400Z,12.65
2019-05-12T09:41:15.028Z,13.16
2019-05-12T09:42:19.522Z,13.97
2019-05-12T09:43:15.012Z,14.67
2019-05-12T09:44:15.020Z,14.94
2019-05-12T09:45:14.982Z,15.12
2019-05-12T09:46:15.004Z,15.19
2019-05-12T09:47:22.991Z,15.75
2019-05-12T09:48:14.981Z,16.46
2019-05-12T09:49:14.956Z,16.61
2019-05-12T09:50:19.960Z,16.21
2019-05-12T09:51:17.152Z,15.65
2019-05-12T09:52:22.361Z,15.52
2019-05-12T09:53:14.925Z,15.30
2019-05-12T09:54:14.903Z,14.67
2019-05-12T09:55:14.928Z,14.49
2019-05-12T09:56:14.887Z,14.48
2019-05-12T09:57:14.873Z,13.94
2019-05-12T09:58:23.039Z,13.28
2019-05-12T09:59:22.782Z,12.83
2019-05-12T10:00:14.872Z,12.53
2019-05-12T10:01:14.898Z,12.39
2019-05-12T10:02:18.518Z,12.61
2019-05-12T10:03:14.816Z,12.98
2019-05-12T10:04:17.844Z,13.09
2019-05-12T10:05:14.799Z,12.93
2019-05-12T10:06:19.519Z,12.55
2019-05-12T10:07:14.779Z,12.69
2019-05-12T10:08:14.795Z,12.98
2019-05-12T10:09:19.645Z,13.24
2019-05-12T10:10:14.741Z,13.58
2019-05-12T10:11:16.440Z,14.05
2019-05-12T10:12:14.755Z,14.55
2019-05-12T10:13:14.724Z,14.79
2019-05-12T10:14:14.702Z,14.67
2019-05-12T10:15:18.653Z,14.51
2019-05-12T10:16:14.681Z,14.38
2019-05-12T10:17:14.705Z,14.61
2019-05-12T10:18:14.675Z,15.19
2019-05-12T10:19:14.657Z,15.48
2019-05-12T10:20:14.655Z,15.76
2019-05-12T10:21:15.325Z,15.45
2019-05-12T10:22:14.643Z,15.05
2019-05-12T10:23:18.262Z,14.68
2019-05-12T10:24:14.632Z,13.95
2019-05-12T10:25:14.670Z,13.43
2019-05-12T10:26:14.955Z,13.05
2019-05-12T10:27:14.611Z,13.36
2019-05-12T10:28:16.201Z,13.52
2019-05-12T10:29:19.786Z,13.71
2019-05-12T10:30:17.241Z,14.23
2019-05-12T10:31:14.560Z,14.77
2019-05-12T10:32:14.568Z,14.79
2019-05-12T10:33:14.543Z,14.51
2019-05-12T10:34:14.540Z,13.87
2019-05-12T10:35:20.841Z,13.37
2019-05-12T10:36:14.511Z,13.19
2019-05-12T10:37:19.371Z,13.19
2019-05-12T10:38:14.534Z,13.21
2019-05-12T10:39:14.514Z,13.62
2019-05-12T10:40:14.471Z,14.00
2019-05-12T10:41:14.466Z,14.28
2019-05-12T10:42:14.460Z,14.18
2019-05-12T10:43:14.470Z,14.18
2019-05-12T10:44:14.439Z,14.28
2019-05-12T10:45:16.966Z,14.43
2019-05-12T10:46:18.476Z,14.58
2019-05-12T10:47:14.429Z,14.82
2019-05-12T10:48:14.416Z,15.17
2019-05-12T10:49:14.374Z,15.47
2019-05-12T10:50:14.506Z,15.73
2019-05-12T10:51:14.366Z,15.78
2019-05-12T10:52:14.387Z,15.59
2019-05-12T10:53:15.765Z,15.32
2019-05-12T10:54:15.731Z,14.85
2019-05-12T10:55:14.322Z,14.52
2019-05-12T10:56:14.313Z,14.26
2019-05-12T10:57:14.302Z,14.04
2019-05-12T10:58:14.684Z,14.05
2019-05-12T10:59:27.991Z,14.04
2019-05-12T11:00:14.394Z,14.05
2019-05-12T11:01:14.269Z,14.12
2019-05-12T11:02:14.250Z,13.93
2019-05-12T11:03:15.461Z,13.89
2019-05-12T11:04:14.403Z,13.94
2019-05-12T11:05:21.460Z,14.05
2019-05-12T11:06:14.202Z,13.97
2019-05-12T11:07:14.208Z,13.87
2019-05-12T11:08:14.485Z,13.60
2019-05-12T11:09:14.306Z,13.54
2019-05-12T11:10:19.594Z,13.50
2019-05-12T11:11:14.144Z,13.42
2019-05-12T11:12:19.109Z,13.13
2019-05-12T11:13:16.229Z,12.99
2019-05-12T11:14:14.313Z,13.06
2019-05-12T11:15:14.100Z,13.09
2019-05-12T11:16:16.750Z,13.24
2019-05-12T11:17:14.080Z,13.31
2019-05-12T11:18:14.065Z,13.20
2019-05-12T11:19:14.063Z,13.19
2019-05-12T11:20:14.217Z,13.30
2019-05-12T11:21:14.023Z,13.62
2019-05-12T11:22:14.037Z,13.91
2019-05-12T11:23:14.007Z,14.12
2019-05-12T11:24:14.124Z,14.49
2019-05-12T11:25:14.444Z,14.96
2019-05-12T11:26:14.257Z,15.59
2019-05-12T11:27:13.953Z,16.16
2019-05-12T11:28:14.160Z,15.85
2019-05-12T11:29:14.204Z,14.74
2019-05-12T11:30:13.949Z,14.66
2019-05-12T11:31:13.919Z,15.00
2019-05-12T11:32:17.236Z,14.89
2019-05-12T11:33:13.883Z,14.82
2019-05-12T11:34:13.872Z,14.34
2019-05-12T11:35:14.413Z,13.95
2019-05-12T11:36:13.853Z,13.65
2019-05-12T11:37:13.959Z,13.37
2019-05-12T11:38:13.834Z,13.13
2019-05-12T11:39:14.241Z,12.84
2019-05-12T11:40:13.834Z,12.66
2019-05-12T11:41:16.211Z,12.57
2019-05-12T11:42:13.799Z,12.53
2019-05-12T11:43:14.516Z,12.35
2019-05-12T11:44:13.759Z,12.23
2019-05-12T11:45:13.738Z,12.02
2019-05-12T11:46:13.752Z,11.85
2019-05-12T11:47:16.957Z,11.76
2019-05-12T11:48:14.379Z,11.76
2019-05-12T11:49:13.866Z,11.80
2019-05-12T11:50:13.679Z,11.78
2019-05-12T11:51:14.432Z,11.78
2019-05-12T11:52:18.453Z,11.86
2019-05-12T11:53:13.887Z,12.02
2019-05-12T11:54:13.874Z,12.66
2019-05-12T11:55:13.610Z,13.28
2019-05-12T11:56:13.951Z,13.83
2019-05-12T11:57:13.586Z,14.12
2019-05-12T11:58:13.573Z,14.11
2019-05-12T11:59:13.908Z,14.03
2019-05-12T12:00:13.810Z,13.79
2019-05-12T12:01:13.605Z,13.80
2019-05-12T12:02:13.561Z,13.65
2019-05-12T12:03:17.779Z,13.83
2019-05-12T12:04:14.378Z,13.94
2019-05-12T12:05:13.858Z,14.07
2019-05-12T12:06:13.547Z,14.08
2019-05-12T12:07:13.451Z,13.82
2019-05-12T12:08:14.426Z,13.46
2019-05-12T12:09:15.263Z,13.27
2019-05-12T12:10:14.222Z,13.19
2019-05-12T12:11:18.174Z,13.21
2019-05-12T12:12:13.599Z,13.33
2019-05-12T12:13:14.192Z,13.40
2019-05-12T12:14:14.255Z,13.36
2019-05-12T12:15:13.811Z,13.40
2019-05-12T12:16:14.134Z,13.54
2019-05-12T12:17:13.631Z,13.75
2019-05-12T12:18:15.253Z,13.95
2019-05-12T12:19:13.302Z,13.95
2019-05-12T12:20:21.742Z,14.01
2019-05-12T12:21:14.261Z,13.83
2019-05-12T12:22:14.648Z,13.64
2019-05-12T12:23:14.110Z,13.45
2019-05-12T12:24:13.347Z,13.27
2019-05-12T12:25:15.542Z,13.24
2019-05-12T12:26:13.337Z,13.33
2019-05-12T12:27:14.209Z,13.50
2019-05-12T12:28:13.703Z,13.43
2019-05-12T12:29:13.676Z,13.30
2019-05-12T12:30:19.280Z,13.19
2019-05-12T12:31:13.271Z,13.01
2019-05-12T12:32:18.467Z,12.88
2019-05-12T12:33:14.335Z,12.84
2019-05-12T12:34:15.514Z,12.81
2019-05-12T12:35:15.071Z,12.68
2019-05-12T12:36:14.504Z,12.62
2019-05-12T12:37:13.691Z,12.61
2019-05-12T12:38:14.144Z,12.54
2019-05-12T12:39:13.220Z,12.51
2019-05-12T12:40:14.394Z,12.53
2019-05-12T12:41:13.242Z,12.54
2019-05-12T12:42:13.984Z,12.62
2019-05-12T12:43:13.734Z,12.75
2019-05-12T12:44:13.615Z,12.99
2019-05-12T12:45:14.159Z,13.11
2019-05-12T12:46:18.093Z,13.19
2019-05-12T12:47:13.840Z,13.28
2019-05-12T12:48:13.696Z,13.45
2019-05-12T12:49:13.942Z,13.61
2019-05-12T12:50:13.340Z,13.58
2019-05-12T12:51:16.982Z,13.57
2019-05-12T12:52:13.743Z,13.42
2019-05-12T12:53:12.875Z,13.21
2019-05-12T12:54:12.853Z,13.12
2019-05-12T12:55:13.986Z,13.13
2019-05-12T12:56:16.167Z,13.23
2019-05-12T12:57:13.674Z,13.24
2019-05-12T12:58:14.080Z,13.30
2019-05-12T12:59:14.617Z,13.39
2019-05-12T13:00:13.868Z,13.42
2019-05-12T13:01:14.139Z,13.39
2019-05-12T13:02:14.220Z,13.37
2019-05-12T13:03:14.394Z,13.30
2019-05-12T13:04:13.303Z,13.39
2019-05-12T13:05:13.561Z,13.42
2019-05-12T13:06:13.496Z,13.45
2019-05-12T13:07:13.746Z,13.46
2019-05-12T13:08:12.655Z,13.46